Orinda, California
Current Conditions -  °F | °C
As of 7:53 PM on Tuesday 27 Jan 2015 (Local Time) from KCCR Reporting Station
Clear Clear  
Wind Chill: 56°   Ceiling: Unl
Heat Index: 56°   Visibility: 9mi
Dew Point: 47°   Wind: 0mph
Humidity: 72%   Direction: NA
Pressure: 30.24"   Gusts: NA
Location:  37.88°N, 122.18°W
Report Text: KCCR 280353Z 00000KT 9SM CLR 13/08 A3024 RMK AO2 SLP227 T01330083
Loading
Personal Weather Stations






























Interactive Weather Map New forecast layout! Learn more

10-Day Weather Forecast

Advertisements
Track Severe Weather on mobile